EDDG/FMO METAR and TAF weather

Enter ICAO airport designator
Station Type Date Time Source
EDDG METAR 2019/06/26 21:50 UTC NOAA

EDDG 262150Z 35009KT CAVOK 16/12 Q1027 NOSIG


Station Type Date Time Source
EDDG Decoded METAR 2019/06/26 21:50 UTC NOAA

Muenster / Osnabrueck, Germany (EDDG) 52-08N 007-42E 53M
Jun 26, 2019 - 05:50 PM EDT / 2019.06.26 2150 UTC
Wind: from the N (350 degrees) at 10 MPH (9 KT):0
Visibility: greater than 7 mile(s):0
Temperature: 60 F (16 C)
Dew Point: 53 F (12 C)
Relative Humidity: 77%
Pressure (altimeter): 30.33 in. Hg (1027 hPa)
ob: EDDG 262150Z 35009KT CAVOK 16/12 Q1027 NOSIG
cycle: 22

Station Type Date Time Source
EDDG TAF 2019/06/26 18:27 UTC NOAA

TAF EDDG 261700Z 2618/2718 35007KT CAVOK PROB30
TEMPO 2703/2707 BKN010

Example: see airport list